createdAt,value
2023-03-06T00:02:21.418Z,12.40
2023-03-06T00:04:48.483Z,12.10
2023-03-06T00:07:15.252Z,13.55
2023-03-06T00:09:42.376Z,11.82
2023-03-06T00:12:09.432Z,13.30
2023-03-06T00:14:36.490Z,11.20
2023-03-06T00:17:03.289Z,11.40
2023-03-06T00:19:30.332Z,11.40
2023-03-06T00:21:57.400Z,10.73
2023-03-06T00:24:24.490Z,11.57
2023-03-06T00:26:51.296Z,10.07
2023-03-06T00:29:18.344Z,11.27
2023-03-06T00:31:47.884Z,10.02
2023-03-06T00:34:15.141Z,11.40
2023-03-06T00:36:42.032Z,10.43
2023-03-06T00:39:09.210Z,10.43
2023-03-06T00:41:36.046Z,11.55
2023-03-06T00:44:03.106Z,11.48
2023-03-06T00:46:29.880Z,12.02
2023-03-06T00:48:56.973Z,11.27
2023-03-06T00:51:23.749Z,11.05
2023-03-06T00:53:50.804Z,10.95
2023-03-06T00:56:19.845Z,11.50
2023-03-06T00:58:47.010Z,11.77
2023-03-06T01:01:13.786Z,10.48
2023-03-06T01:03:41.023Z,11.43
2023-03-06T01:06:07.857Z,11.18
2023-03-06T01:08:34.939Z,13.05
2023-03-06T01:11:01.688Z,12.25
2023-03-06T01:13:28.732Z,12.55
2023-03-06T01:15:55.548Z,12.57
2023-03-06T01:18:22.649Z,11.73
2023-03-06T01:20:50.454Z,11.52
2023-03-06T01:23:17.480Z,11.52
2023-03-06T01:25:44.218Z,10.75
2023-03-06T01:28:11.292Z,11.15
2023-03-06T01:30:38.033Z,12.13
2023-03-06T01:33:05.142Z,11.90
2023-03-06T01:35:31.937Z,10.48
2023-03-06T01:37:59.032Z,10.25
2023-03-06T01:40:25.793Z,11.70
2023-03-06T01:42:53.052Z,9.85
2023-03-06T01:45:19.762Z,10.35
2023-03-06T01:47:46.831Z,10.82
2023-03-06T01:50:13.609Z,11.15
2023-03-06T01:52:52.506Z,10.25
2023-03-06T01:55:24.929Z,10.65
2023-03-06T01:57:53.633Z,9.15
2023-03-06T02:00:29.624Z,10.02
2023-03-06T02:03:35.336Z,10.13
2023-03-06T02:06:02.158Z,9.45
2023-03-06T02:08:29.199Z,9.70
2023-03-06T02:11:11.209Z,8.80
2023-03-06T02:13:38.341Z,8.88
2023-03-06T02:16:05.427Z,9.50
2023-03-06T02:18:33.297Z,9.70
2023-03-06T02:21:02.516Z,9.75
2023-03-06T02:23:54.554Z,9.70
2023-03-06T02:26:21.400Z,8.93
2023-03-06T02:28:48.430Z,9.23
2023-03-06T02:31:26.926Z,8.55
2023-03-06T02:34:15.399Z,7.95
2023-03-06T02:36:49.921Z,8.38
2023-03-06T02:39:18.684Z,9.10
2023-03-06T02:41:45.418Z,8.90
2023-03-06T02:44:12.478Z,8.65
2023-03-06T02:46:39.284Z,9.02
2023-03-06T02:49:06.362Z,9.02
2023-03-06T02:51:33.115Z,8.80
2023-03-06T02:54:00.193Z,8.90
2023-03-06T02:56:27.042Z,9.40
2023-03-06T02:58:54.166Z,8.00
2023-03-06T03:01:20.924Z,8.73
2023-03-06T03:03:48.012Z,8.48
2023-03-06T03:06:14.774Z,8.10
2023-03-06T03:08:41.789Z,8.50
2023-03-06T03:11:09.393Z,8.80
2023-03-06T03:13:37.594Z,8.48
2023-03-06T03:16:08.822Z,8.43
2023-03-06T03:18:36.185Z,8.75
2023-03-06T03:21:06.750Z,9.27
2023-03-06T03:23:33.788Z,8.80
2023-03-06T03:26:11.591Z,8.73
2023-03-06T03:28:38.653Z,10.23
2023-03-06T03:31:06.479Z,9.40
2023-03-06T03:33:33.790Z,9.65
2023-03-06T03:36:01.099Z,8.73
2023-03-06T03:38:28.226Z,10.23
2023-03-06T03:40:54.970Z,10.82
2023-03-06T03:43:22.035Z,10.68
2023-03-06T03:45:48.786Z,10.95
2023-03-06T03:48:15.822Z,10.60
2023-03-06T03:50:42.596Z,10.82
2023-03-06T03:53:09.773Z,11.25
2023-03-06T03:55:36.715Z,11.75
2023-03-06T03:58:03.749Z,11.90
2023-03-06T04:00:30.502Z,11.07
2023-03-06T04:02:57.571Z,11.32
2023-03-06T04:05:24.330Z,11.20
2023-03-06T04:07:51.414Z,12.23
2023-03-06T04:10:18.190Z,13.40
2023-03-06T04:12:45.274Z,13.20
2023-03-06T04:15:12.047Z,14.15
2023-03-06T04:17:39.179Z,14.95
2023-03-06T04:20:06.378Z,14.10
2023-03-06T04:22:33.463Z,15.80
2023-03-06T04:25:00.214Z,13.93
2023-03-06T04:27:27.233Z,16.20
2023-03-06T04:29:56.399Z,16.73
2023-03-06T04:32:24.016Z,18.13
2023-03-06T04:34:50.953Z,20.40
2023-03-06T04:37:22.304Z,20.48
2023-03-06T04:39:49.171Z,19.42
2023-03-06T04:42:16.357Z,21.48
2023-03-06T04:44:43.175Z,22.20
2023-03-06T04:47:10.376Z,21.95
2023-03-06T04:49:37.204Z,22.92
2023-03-06T04:52:04.427Z,20.88
2023-03-06T04:54:31.322Z,21.48
2023-03-06T04:56:58.423Z,20.52
2023-03-06T04:59:25.188Z,21.58
2023-03-06T05:01:52.311Z,22.33
2023-03-06T05:04:19.109Z,22.63
2023-03-06T05:06:46.214Z,21.25
2023-03-06T05:09:12.976Z,23.08
2023-03-06T05:11:40.041Z,24.60
2023-03-06T05:14:06.825Z,24.13
2023-03-06T05:16:33.873Z,27.88
2023-03-06T05:19:00.650Z,28.38
2023-03-06T05:21:27.701Z,27.92
2023-03-06T05:23:54.476Z,26.40
2023-03-06T05:26:21.536Z,25.40
2023-03-06T05:28:48.310Z,23.70
2023-03-06T05:31:15.480Z,24.42
2023-03-06T05:33:42.313Z,22.67
2023-03-06T05:36:09.580Z,23.38
2023-03-06T05:38:36.371Z,21.95
2023-03-06T05:41:03.508Z,21.05
2023-03-06T05:43:30.255Z,23.05
2023-03-06T05:46:02.582Z,20.80
2023-03-06T05:48:29.541Z,20.65
2023-03-06T05:50:57.562Z,19.25
2023-03-06T05:53:24.394Z,18.92
2023-03-06T05:56:02.710Z,18.02
2023-03-06T05:58:29.878Z,19.02
2023-03-06T06:00:57.035Z,21.23
2023-03-06T06:03:23.918Z,21.35
2023-03-06T06:05:51.330Z,20.55
2023-03-06T06:08:18.578Z,22.02
2023-03-06T06:10:45.660Z,21.27
2023-03-06T06:13:12.413Z,19.92
2023-03-06T06:15:39.474Z,22.60
2023-03-06T06:18:06.301Z,20.80
2023-03-06T06:20:33.369Z,21.77
2023-03-06T06:23:00.158Z,20.63
2023-03-06T06:25:27.202Z,20.92
2023-03-06T06:27:57.774Z,21.25
2023-03-06T06:30:24.970Z,19.30
2023-03-06T06:32:51.741Z,20.27
2023-03-06T06:35:18.860Z,18.27
2023-03-06T06:37:45.621Z,18.88
2023-03-06T06:40:12.953Z,17.58
2023-03-06T06:42:40.264Z,18.92
2023-03-06T06:45:11.528Z,18.27
2023-03-06T06:47:41.669Z,16.48
2023-03-06T06:50:13.105Z,17.02
2023-03-06T06:52:40.196Z,15.82
2023-03-06T06:55:07.733Z,16.00
2023-03-06T06:57:34.514Z,14.90
2023-03-06T07:00:01.556Z,15.07
2023-03-06T07:02:28.440Z,15.13
2023-03-06T07:05:04.198Z,15.48
2023-03-06T07:07:33.624Z,15.25
2023-03-06T07:10:00.713Z,14.48
2023-03-06T07:12:27.540Z,14.75
2023-03-06T07:14:54.647Z,14.90
2023-03-06T07:17:21.420Z,15.20
2023-03-06T07:19:48.635Z,13.45
2023-03-06T07:22:15.444Z,13.77
2023-03-06T07:24:42.538Z,13.95
2023-03-06T07:27:09.251Z,12.93
2023-03-06T07:29:36.335Z,13.38
2023-03-06T07:32:03.206Z,14.07
2023-03-06T07:34:30.305Z,13.80
2023-03-06T07:36:57.043Z,12.30
2023-03-06T07:39:24.161Z,12.63
2023-03-06T07:41:52.242Z,13.80
2023-03-06T07:44:20.083Z,11.55
2023-03-06T07:46:46.882Z,13.13
2023-03-06T07:49:14.050Z,13.18
2023-03-06T07:51:40.823Z,13.32
2023-03-06T07:54:07.866Z,13.77
2023-03-06T07:56:35.144Z,12.13
2023-03-06T07:59:03.523Z,12.63
2023-03-06T08:01:30.329Z,12.95
2023-03-06T08:03:57.736Z,12.88
2023-03-06T08:06:26.243Z,12.55
2023-03-06T08:08:53.947Z,12.82
2023-03-06T08:11:22.112Z,13.88
2023-03-06T08:13:49.346Z,13.13
2023-03-06T08:16:17.441Z,12.88
2023-03-06T08:18:46.311Z,17.98
2023-03-06T08:21:23.931Z,18.65
2023-03-06T08:23:51.126Z,20.80
2023-03-06T08:26:26.098Z,26.92
2023-03-06T08:28:54.331Z,33.13
2023-03-06T08:31:27.636Z,41.80
2023-03-06T08:33:55.274Z,43.95
2023-03-06T08:36:22.121Z,46.80
2023-03-06T08:38:49.188Z,43.67
2023-03-06T08:41:15.960Z,42.75
2023-03-06T08:43:43.243Z,40.50
2023-03-06T08:46:10.435Z,39.97
2023-03-06T08:48:37.787Z,39.58
2023-03-06T08:51:04.756Z,35.90
2023-03-06T08:53:42.772Z,34.13
2023-03-06T08:56:30.149Z,33.03
2023-03-06T08:58:58.252Z,28.67
2023-03-06T09:01:26.747Z,30.02
2023-03-06T09:03:58.126Z,29.48
2023-03-06T09:06:25.265Z,25.08
2023-03-06T09:08:53.045Z,25.27
2023-03-06T09:11:19.909Z,26.83
2023-03-06T09:13:47.290Z,23.95
2023-03-06T09:16:14.114Z,21.67
2023-03-06T09:18:41.439Z,22.52
2023-03-06T09:21:08.970Z,20.70
2023-03-06T09:23:37.105Z,18.20
2023-03-06T09:26:03.997Z,18.55
2023-03-06T09:28:31.202Z,17.83
2023-03-06T09:30:58.075Z,17.75
2023-03-06T09:33:25.661Z,15.60
2023-03-06T09:35:56.327Z,16.63
2023-03-06T09:38:25.518Z,17.98
2023-03-06T09:41:02.176Z,18.30
2023-03-06T09:43:30.793Z,20.35
2023-03-06T09:45:58.632Z,20.83
2023-03-06T09:48:44.596Z,22.10
2023-03-06T09:51:15.179Z,20.83
2023-03-06T09:53:51.104Z,19.98
2023-03-06T09:56:22.636Z,19.83
2023-03-06T09:58:59.640Z,18.73
2023-03-06T10:01:28.367Z,17.83
2023-03-06T10:04:23.422Z,19.30
2023-03-06T10:06:51.787Z,20.05
2023-03-06T10:09:21.819Z,18.85
2023-03-06T10:12:24.570Z,18.05
2023-03-06T10:15:02.154Z,17.27
2023-03-06T10:17:34.568Z,15.85
2023-03-06T10:20:06.994Z,17.88
2023-03-06T10:22:46.139Z,15.45
2023-03-06T10:25:28.147Z,15.55
2023-03-06T10:28:21.885Z,13.70
2023-03-06T10:31:14.019Z,13.70
2023-03-06T10:33:57.378Z,13.68
2023-03-06T10:36:28.866Z,14.70
2023-03-06T10:38:57.149Z,15.05
2023-03-06T10:41:31.253Z,14.52
2023-03-06T10:44:00.779Z,14.60
2023-03-06T10:46:29.767Z,13.82
2023-03-06T10:49:28.393Z,12.45
2023-03-06T10:52:20.875Z,13.32
2023-03-06T10:54:48.399Z,13.02
2023-03-06T10:57:35.828Z,11.40
2023-03-06T11:00:06.016Z,11.77
2023-03-06T11:02:38.538Z,11.48
2023-03-06T11:05:05.952Z,11.65
2023-03-06T11:07:34.247Z,10.80
2023-03-06T11:10:07.620Z,10.38
2023-03-06T11:12:41.911Z,9.63
2023-03-06T11:15:14.845Z,9.07
2023-03-06T11:18:00.353Z,8.68
2023-03-06T11:20:52.566Z,8.00
2023-03-06T11:23:37.322Z,7.80
2023-03-06T11:26:20.101Z,7.45
2023-03-06T11:28:48.555Z,7.13
2023-03-06T11:31:17.361Z,9.77
2023-03-06T11:34:08.932Z,9.43
2023-03-06T11:36:47.749Z,9.43
2023-03-06T11:39:22.684Z,8.48
2023-03-06T11:42:42.746Z,8.35
2023-03-06T11:45:24.159Z,7.25
2023-03-06T11:47:53.526Z,7.20
2023-03-06T11:50:49.671Z,6.82
2023-03-06T11:53:21.407Z,6.85
2023-03-06T11:55:54.511Z,6.20
2023-03-06T11:58:46.004Z,6.80
2023-03-06T12:01:15.013Z,7.28
2023-03-06T12:03:47.757Z,8.27
2023-03-06T12:06:30.586Z,7.22
2023-03-06T12:09:01.712Z,6.82
2023-03-06T12:11:49.576Z,6.82
2023-03-06T12:14:41.287Z,7.38
2023-03-06T12:17:08.452Z,6.93
2023-03-06T12:19:38.419Z,7.35
2023-03-06T12:22:24.345Z,6.18
2023-03-06T12:25:06.204Z,5.90
2023-03-06T12:27:33.264Z,5.65
2023-03-06T12:30:21.561Z,5.80
2023-03-06T12:33:10.391Z,5.50
2023-03-06T12:35:40.053Z,4.63
2023-03-06T12:38:34.835Z,7.32
2023-03-06T12:41:10.805Z,11.23
2023-03-06T12:43:50.455Z,13.38
2023-03-06T12:46:21.523Z,13.70
2023-03-06T12:49:03.271Z,11.23
2023-03-06T12:51:30.281Z,11.07
2023-03-06T12:53:57.969Z,9.85
2023-03-06T12:56:24.815Z,9.52
2023-03-06T12:58:53.187Z,8.82
2023-03-06T13:01:35.915Z,8.38
2023-03-06T13:04:24.252Z,9.10
2023-03-06T13:06:59.998Z,7.53
2023-03-06T13:09:36.004Z,8.32
2023-03-06T13:12:21.379Z,7.38
2023-03-06T13:14:54.819Z,7.35
2023-03-06T13:17:27.766Z,6.60
2023-03-06T13:20:13.518Z,5.65
2023-03-06T13:22:44.302Z,6.30
2023-03-06T13:25:17.409Z,5.38
2023-03-06T13:27:45.365Z,5.38
2023-03-06T13:30:39.086Z,5.55
2023-03-06T13:33:25.003Z,5.97
2023-03-06T13:35:59.083Z,5.45
2023-03-06T13:38:39.513Z,5.25
2023-03-06T13:41:25.100Z,5.60
2023-03-06T13:44:02.918Z,5.10
2023-03-06T13:46:35.229Z,5.22
2023-03-06T13:49:08.055Z,4.68
2023-03-06T13:51:54.134Z,4.93
2023-03-06T13:57:02.396Z,4.75
2023-03-06T14:00:12.046Z,4.28
2023-03-06T14:02:56.555Z,4.05
2023-03-06T14:05:23.607Z,4.40
2023-03-06T14:08:09.164Z,4.07
2023-03-06T14:10:36.348Z,4.25
2023-03-06T14:13:13.109Z,4.68
2023-03-06T14:15:44.593Z,4.10
2023-03-06T14:18:20.538Z,4.13
2023-03-06T14:21:08.895Z,5.45
2023-03-06T14:23:38.286Z,4.97
2023-03-06T14:26:15.271Z,4.82
2023-03-06T14:29:03.059Z,5.18
2023-03-06T14:31:34.191Z,5.80
2023-03-06T14:34:08.799Z,6.55
2023-03-06T14:36:41.744Z,5.28
2023-03-06T14:39:15.755Z,6.57
2023-03-06T14:41:42.594Z,5.97
2023-03-06T14:44:21.512Z,5.60
2023-03-06T14:46:55.741Z,6.40
2023-03-06T14:49:24.731Z,6.60
2023-03-06T14:51:56.413Z,7.05
2023-03-06T14:54:28.008Z,6.82
2023-03-06T14:57:00.236Z,6.75
2023-03-06T14:59:28.987Z,6.40
2023-03-06T15:02:03.794Z,7.25
2023-03-06T15:04:38.595Z,7.80
2023-03-06T15:07:08.048Z,7.13
2023-03-06T15:09:36.125Z,7.70
2023-03-06T15:12:10.378Z,7.47
2023-03-06T15:14:41.840Z,7.63
2023-03-06T15:17:18.199Z,7.93
2023-03-06T15:19:46.804Z,8.60
2023-03-06T15:22:25.822Z,9.05
2023-03-06T15:24:53.038Z,9.10
2023-03-06T15:27:26.335Z,9.70
2023-03-06T15:29:53.446Z,9.88
2023-03-06T15:32:32.223Z,10.32
2023-03-06T15:35:24.538Z,9.85
2023-03-06T15:37:51.699Z,10.77
2023-03-06T15:40:23.180Z,10.38
2023-03-06T15:42:51.088Z,11.15
2023-03-06T15:45:22.812Z,11.38
2023-03-06T15:47:50.713Z,11.02
2023-03-06T15:50:19.733Z,11.57
2023-03-06T15:52:46.719Z,10.57
2023-03-06T15:55:14.724Z,11.57
2023-03-06T15:57:52.956Z,11.32
2023-03-06T16:00:28.677Z,10.77
2023-03-06T16:02:56.415Z,11.45
2023-03-06T16:05:23.694Z,10.60
2023-03-06T16:07:50.693Z,12.40
2023-03-06T16:10:19.473Z,12.85
2023-03-06T16:12:57.123Z,13.43
2023-03-06T16:15:28.916Z,13.93
2023-03-06T16:17:56.668Z,12.60
2023-03-06T16:20:25.196Z,14.32
2023-03-06T16:22:53.750Z,14.32
2023-03-06T16:25:21.097Z,14.85
2023-03-06T16:27:55.569Z,14.68
2023-03-06T16:30:23.054Z,14.07
2023-03-06T16:32:49.886Z,14.40
2023-03-06T16:35:18.449Z,15.48
2023-03-06T16:37:45.522Z,14.93
2023-03-06T16:40:22.153Z,14.23
2023-03-06T16:42:49.790Z,15.90
2023-03-06T16:45:17.776Z,17.08
2023-03-06T16:47:45.028Z,17.65
2023-03-06T16:50:33.562Z,17.15
2023-03-06T16:53:00.480Z,16.75
2023-03-06T16:55:28.021Z,17.70
2023-03-06T16:57:54.779Z,19.65
2023-03-06T17:00:22.283Z,19.33
2023-03-06T17:02:49.192Z,18.75
2023-03-06T17:05:16.420Z,18.13
2023-03-06T17:07:43.179Z,17.90
2023-03-06T17:10:12.739Z,18.75
2023-03-06T17:12:39.525Z,19.73
2023-03-06T17:15:07.108Z,19.77
2023-03-06T17:17:34.134Z,18.75
2023-03-06T17:20:01.520Z,18.23
2023-03-06T17:22:29.005Z,19.30
2023-03-06T17:24:56.110Z,20.05
2023-03-06T17:27:23.017Z,21.13
2023-03-06T17:29:50.169Z,22.05
2023-03-06T17:32:16.945Z,20.58
2023-03-06T17:34:44.145Z,22.00
2023-03-06T17:37:10.923Z,21.20
2023-03-06T17:39:38.893Z,23.13
2023-03-06T17:42:06.492Z,20.75
2023-03-06T17:44:34.338Z,21.92
2023-03-06T17:47:01.303Z,24.58
2023-03-06T17:49:28.421Z,22.75
2023-03-06T17:51:56.523Z,23.48
2023-03-06T17:54:26.129Z,23.88
2023-03-06T17:56:53.563Z,23.77
2023-03-06T17:59:20.737Z,21.75
2023-03-06T18:01:47.575Z,23.63
2023-03-06T18:04:14.717Z,23.10
2023-03-06T18:06:41.471Z,22.48
2023-03-06T18:09:10.110Z,21.33
2023-03-06T18:11:37.275Z,20.88
2023-03-06T18:14:05.557Z,21.20
2023-03-06T18:16:32.575Z,20.02
2023-03-06T18:18:59.710Z,21.52
2023-03-06T18:21:26.670Z,21.60
2023-03-06T18:23:53.774Z,20.92
2023-03-06T18:26:30.004Z,19.65
2023-03-06T18:28:58.390Z,19.35
2023-03-06T18:31:31.790Z,20.23
2023-03-06T18:34:02.907Z,18.85
2023-03-06T18:36:30.842Z,19.90
2023-03-06T18:38:58.485Z,18.98
2023-03-06T18:41:25.314Z,20.75
2023-03-06T18:43:53.658Z,20.73
2023-03-06T18:46:20.425Z,19.90
2023-03-06T18:48:47.502Z,22.60
2023-03-06T18:51:14.308Z,24.10
2023-03-06T18:53:41.550Z,22.88
2023-03-06T18:56:09.485Z,23.15
2023-03-06T18:58:36.693Z,23.80
2023-03-06T19:01:07.213Z,26.63
2023-03-06T19:03:34.436Z,26.30
2023-03-06T19:06:07.341Z,26.40
2023-03-06T19:08:35.089Z,26.88
2023-03-06T19:11:12.213Z,26.05
2023-03-06T19:13:39.350Z,25.17
2023-03-06T19:16:06.705Z,26.05
2023-03-06T19:18:34.048Z,24.90
2023-03-06T19:21:11.724Z,25.60
2023-03-06T19:23:39.554Z,28.23
2023-03-06T19:26:07.561Z,25.38
2023-03-06T19:28:36.259Z,26.30
2023-03-06T19:31:18.452Z,26.70
2023-03-06T19:33:47.413Z,25.83
2023-03-06T19:36:14.871Z,28.05
2023-03-06T19:38:42.014Z,25.40
2023-03-06T19:41:13.426Z,27.38
2023-03-06T19:43:41.305Z,24.65
2023-03-06T19:46:14.333Z,27.17
2023-03-06T19:48:41.830Z,23.80
2023-03-06T19:51:08.768Z,27.63
2023-03-06T19:53:35.908Z,29.48
2023-03-06T19:56:11.835Z,29.27
2023-03-06T19:58:40.704Z,27.92
2023-03-06T20:01:12.159Z,29.10
2023-03-06T20:03:39.490Z,28.98
2023-03-06T20:06:09.027Z,29.00
2023-03-06T20:08:36.624Z,29.63
2023-03-06T20:11:04.085Z,29.25
2023-03-06T20:13:31.401Z,28.05
2023-03-06T20:16:02.395Z,27.58
2023-03-06T20:18:29.608Z,25.60
2023-03-06T20:21:03.401Z,25.65
2023-03-06T20:23:30.744Z,25.67
2023-03-06T20:26:01.736Z,26.20
2023-03-06T20:28:28.837Z,24.85
2023-03-06T20:30:55.586Z,24.50
2023-03-06T20:33:23.284Z,23.23
2023-03-06T20:35:50.181Z,23.88
2023-03-06T20:38:17.302Z,24.35
2023-03-06T20:40:44.155Z,23.08
2023-03-06T20:43:11.307Z,23.20
2023-03-06T20:45:38.064Z,22.70
2023-03-06T20:48:05.314Z,21.45
2023-03-06T20:50:32.066Z,22.20
2023-03-06T20:52:59.148Z,21.42
2023-03-06T20:55:25.947Z,22.23
2023-03-06T20:57:53.021Z,22.17
2023-03-06T21:00:21.000Z,22.45
2023-03-06T21:02:48.220Z,20.67
2023-03-06T21:05:15.111Z,24.63
2023-03-06T21:07:42.278Z,21.55
2023-03-06T21:10:09.591Z,24.35
2023-03-06T21:12:36.713Z,24.08
2023-03-06T21:15:03.769Z,23.35
2023-03-06T21:17:30.878Z,24.38
2023-03-06T21:19:58.456Z,23.05
2023-03-06T21:22:25.619Z,22.75
2023-03-06T21:24:52.432Z,22.92
2023-03-06T21:27:19.585Z,25.33
2023-03-06T21:29:46.563Z,25.42
2023-03-06T21:32:13.771Z,25.95
2023-03-06T21:34:40.590Z,26.67
2023-03-06T21:37:07.636Z,26.25
2023-03-06T21:39:34.850Z,28.25
2023-03-06T21:42:02.059Z,30.30
2023-03-06T21:44:28.821Z,32.35
2023-03-06T21:46:55.887Z,30.17
2023-03-06T21:49:26.045Z,30.35
2023-03-06T21:51:53.405Z,32.67
2023-03-06T21:54:20.207Z,31.05
2023-03-06T21:56:47.477Z,29.77
2023-03-06T21:59:14.326Z,29.52
2023-03-06T22:01:42.769Z,30.85
2023-03-06T22:04:09.600Z,29.23
2023-03-06T22:06:37.939Z,30.00
2023-03-06T22:09:04.687Z,29.42
2023-03-06T22:11:34.266Z,28.48
2023-03-06T22:14:01.123Z,27.55
2023-03-06T22:16:28.358Z,27.90
2023-03-06T22:18:55.228Z,28.10
2023-03-06T22:21:22.579Z,27.52
2023-03-06T22:23:53.406Z,25.40
2023-03-06T22:26:20.596Z,28.40
2023-03-06T22:28:47.540Z,27.25
2023-03-06T22:31:16.590Z,26.50
2023-03-06T22:33:43.464Z,27.13
2023-03-06T22:36:12.553Z,27.25
2023-03-06T22:38:40.408Z,27.88
2023-03-06T22:41:07.851Z,28.30
2023-03-06T22:43:34.902Z,28.10
2023-03-06T22:46:15.853Z,28.48
2023-03-06T22:48:42.741Z,27.52
2023-03-06T22:51:11.442Z,29.95
2023-03-06T22:53:38.373Z,30.45
2023-03-06T22:56:07.746Z,29.95
2023-03-06T22:58:37.068Z,29.85
2023-03-06T23:01:05.843Z,30.50
2023-03-06T23:03:32.624Z,28.60
2023-03-06T23:05:59.696Z,29.23
2023-03-06T23:08:26.569Z,30.60
2023-03-06T23:10:53.682Z,28.85
2023-03-06T23:13:20.409Z,29.98
2023-03-06T23:15:47.538Z,30.27
2023-03-06T23:18:14.328Z,31.35
2023-03-06T23:20:43.490Z,28.42
2023-03-06T23:23:10.789Z,29.98
2023-03-06T23:25:37.847Z,29.83
2023-03-06T23:28:04.720Z,30.73
2023-03-06T23:30:31.862Z,31.15
2023-03-06T23:32:58.614Z,31.25
2023-03-06T23:35:25.746Z,29.60
2023-03-06T23:37:52.512Z,30.60
2023-03-06T23:40:19.615Z,31.55
2023-03-06T23:42:46.351Z,30.35
2023-03-06T23:45:13.409Z,31.38
2023-03-06T23:47:40.276Z,30.10
2023-03-06T23:50:07.761Z,31.10
2023-03-06T23:52:34.565Z,32.80
2023-03-06T23:55:01.585Z,31.15
2023-03-06T23:57:29.280Z,29.85
2023-03-06T23:59:56.864Z,30.85
